Time;durP1;ratioP1;P1;durP2;ratioP2;P2;SDS_P1;SDS_P2;PMS_P1;PMS_P2;Temp;Humidity;BMP_temperature;BMP_pressure;BME280_temperature;BME280_humidity;BME280_pressure;Samples;Min_cycle;Max_cycle;Signal;HPM_P1;HPM_P2
2023/10/07 00:00:32;;;;;;;2.97;1.80;;;18.60;71.00;;;;;;5115086;28;20173;-70
2023/10/07 00:02:59;;;;;;;2.78;1.95;;;18.70;71.10;;;;;;5101035;28;20520;-69
2023/10/07 00:05:39;;;;;;;2.05;1.80;;;18.70;71.10;;;;;;5116049;28;20603;-69
2023/10/07 00:08:12;;;;;;;2.30;1.92;;;18.70;71.10;;;;;;5115080;28;20256;-69
2023/10/07 00:10:38;;;;;;;1.95;1.80;;;18.70;71.10;;;;;;5115868;28;20195;-70
2023/10/07 00:13:08;;;;;;;2.67;1.88;;;18.60;71.10;;;;;;5115019;28;20627;-69
2023/10/07 00:15:34;;;;;;;2.15;1.80;;;18.70;71.10;;;;;;5115796;28;20260;-69
2023/10/07 00:18:23;;;;;;;2.03;1.83;;;18.70;71.10;;;;;;5115699;28;20292;-68
2023/10/07 00:20:56;;;;;;;2.47;2.00;;;18.60;71.00;;;;;;5114574;28;20185;-70
2023/10/07 00:23:22;;;;;;;2.42;1.75;;;18.60;71.00;;;;;;5115633;28;20177;-69
2023/10/07 00:25:52;;;;;;;2.83;2.05;;;18.60;71.10;;;;;;5115906;28;20218;-69
2023/10/07 00:28:19;;;;;;;2.75;1.80;;;18.70;71.10;;;;;;5114615;28;20643;-69
2023/10/07 00:30:53;;;;;;;2.28;2.08;;;18.60;71.00;;;;;;5115565;28;20181;-69
2023/10/07 00:33:21;;;;;;;2.35;1.70;;;18.70;71.20;;;;;;5115329;28;20256;-69
2023/10/07 00:35:50;;;;;;;1.70;1.60;;;18.60;71.00;;;;;;5114781;28;20181;-71
2023/10/07 00:38:16;;;;;;;1.40;1.30;;;18.70;71.20;;;;;;5115276;28;20566;-69
2023/10/07 00:40:53;;;;;;;2.55;2.20;;;18.60;71.10;;;;;;5115181;28;20173;-69
2023/10/07 00:43:31;;;;;;;1.95;1.75;;;18.60;71.10;;;;;;5114500;28;20271;-70
2023/10/07 00:46:28;;;;;;;3.92;1.90;;;18.60;71.20;;;;;;5115225;28;20200;-69
2023/10/07 00:48:52;;;;;;;2.35;1.70;;;18.70;71.70;;;;;;5113753;28;20225;-69
2023/10/07 00:51:22;;;;;;;1.60;1.50;;;18.60;71.20;;;;;;5115133;28;20188;-69
2023/10/07 00:53:57;;;;;;;2.72;1.85;;;18.60;71.10;;;;;;5097802;28;20197;-69
2023/10/07 00:56:23;;;;;;;3.35;1.80;;;18.60;71.10;;;;;;5097630;28;20229;-70
2023/10/07 00:58:49;;;;;;;1.85;1.75;;;18.60;72.00;;;;;;5115292;28;20209;-69
2023/10/07 01:01:14;;;;;;;2.83;1.83;;;18.60;71.20;;;;;;5096786;28;20165;-69
2023/10/07 01:03:49;;;;;;;2.40;2.00;;;18.70;71.40;;;;;;5095914;28;20297;-69
2023/10/07 01:06:22;;;;;;;2.30;1.75;;;18.60;71.20;;;;;;5114621;28;20164;-68
2023/10/07 01:08:55;;;;;;;2.80;2.13;;;18.60;71.20;;;;;;5114863;28;20181;-69
2023/10/07 01:11:23;;;;;;;2.70;2.28;;;18.60;71.20;;;;;;5113899;28;20536;-70
2023/10/07 01:13:51;;;;;;;2.10;1.88;;;18.60;71.20;;;;;;5114947;28;20165;-69
2023/10/07 01:19:19;;;;;;;2.63;2.20;;;18.60;71.30;;;;;;5114641;28;20295;-69
2023/10/07 01:22:05;;;;;;;2.80;1.75;;;18.60;71.30;;;;;;5114238;28;20373;-69
2023/10/07 01:24:42;;;;;;;2.25;1.85;;;18.60;71.30;;;;;;5113596;28;20658;-69
2023/10/07 01:27:21;;;;;;;1.90;1.70;;;18.60;71.30;;;;;;5114320;28;20181;-69
2023/10/07 01:29:49;;;;;;;2.65;1.85;;;18.60;71.30;;;;;;5114413;28;20199;-68
2023/10/07 01:32:16;;;;;;;2.42;1.90;;;18.60;71.30;;;;;;5113538;28;20180;-69
2023/10/07 01:34:47;;;;;;;3.33;1.73;;;18.60;71.30;;;;;;5114375;28;20209;-70
2023/10/07 01:37:15;;;;;;;4.75;2.25;;;18.60;71.30;;;;;;5113952;28;20217;-71
2023/10/07 01:39:42;;;;;;;1.70;1.60;;;18.60;71.30;;;;;;5114131;28;20295;-69
2023/10/07 01:42:22;;;;;;;2.25;1.95;;;18.60;71.30;;;;;;5113759;28;20178;-69
2023/10/07 01:44:54;;;;;;;2.28;1.80;;;18.60;71.30;;;;;;5113721;28;20244;-70
2023/10/07 01:47:29;;;;;;;1.83;1.73;;;18.60;71.30;;;;;;5113722;28;20330;-70
2023/10/07 01:49:56;;;;;;;2.35;1.88;;;18.60;71.30;;;;;;5114106;28;20557;-69
2023/10/07 01:52:26;;;;;;;2.03;1.70;;;18.60;71.30;;;;;;5113082;28;20180;-69
2023/10/07 01:54:52;;;;;;;2.08;1.90;;;18.60;71.30;;;;;;5114029;28;20184;-69
2023/10/07 01:57:19;;;;;;;2.15;1.92;;;18.60;71.40;;;;;;5113409;28;20572;-71
2023/10/07 01:59:45;;;;;;;1.80;1.65;;;18.60;71.30;;;;;;5113298;28;20173;-70
2023/10/07 02:02:12;;;;;;;2.25;1.95;;;18.60;71.40;;;;;;5113602;28;20165;-69
2023/10/07 02:04:38;;;;;;;2.17;1.90;;;18.60;71.30;;;;;;5113748;28;20177;-70
2023/10/07 02:07:04;;;;;;;2.92;1.90;;;18.60;71.40;;;;;;5112743;28;20165;-69
2023/10/07 02:09:35;;;;;;;2.50;2.10;;;18.60;71.40;;;;;;5113452;28;20185;-69
2023/10/07 02:12:01;;;;;;;2.20;2.00;;;18.60;71.40;;;;;;5113855;28;20593;-68
2023/10/07 02:14:27;;;;;;;3.83;2.05;;;18.50;71.30;;;;;;5112621;28;20653;-69
2023/10/07 02:16:53;;;;;;;3.10;2.05;;;18.60;71.40;;;;;;5113192;28;20192;-69
2023/10/07 02:22:22;;;;;;;2.10;1.80;;;18.60;71.40;;;;;;5099603;28;20623;-69
2023/10/07 02:24:55;;;;;;;2.95;2.08;;;18.60;71.40;;;;;;5113591;28;20177;-69
2023/10/07 02:27:25;;;;;;;1.70;1.60;;;18.60;71.40;;;;;;5112568;28;20219;-69
2023/10/07 02:29:51;;;;;;;3.35;2.60;;;18.60;71.40;;;;;;5113413;28;20514;-70
2023/10/07 02:32:17;;;;;;;2.58;1.75;;;18.50;71.40;;;;;;5113004;28;20518;-70
2023/10/07 02:34:52;;;;;;;2.10;1.90;;;18.60;71.40;;;;;;5112543;28;20204;-70
2023/10/07 02:37:25;;;;;;;2.92;1.77;;;18.60;71.40;;;;;;5112805;28;20204;-71
2023/10/07 02:39:56;;;;;;;3.42;2.10;;;18.60;71.40;;;;;;5113143;28;20650;-70
2023/10/07 02:42:21;;;;;;;2.38;2.10;;;18.60;71.40;;;;;;5112109;28;20251;-70
2023/10/07 02:45:42;;;;;;;3.08;1.90;;;18.60;71.40;;;;;;5113145;28;20246;-70
2023/10/07 02:47:41;;;;;;;2.65;1.92;;;18.60;71.40;;;;;;5101186;28;20220;-69
2023/10/07 02:50:08;;;;;;;2.03;1.83;;;18.60;71.40;;;;;;5112951;28;20173;-70
2023/10/07 02:52:37;;;;;;;2.10;1.77;;;18.60;71.40;;;;;;5112992;28;20185;-69
2023/10/07 02:57:41;;;;;;;2.45;2.10;;;18.60;71.40;;;;;;5113077;28;20211;-71
2023/10/07 03:00:18;;;;;;;2.22;1.85;;;18.60;71.40;;;;;;5113055;28;20198;-70
2023/10/07 03:02:50;;;;;;;2.10;1.77;;;18.60;71.40;;;;;;5095382;28;20180;-70
2023/10/07 03:05:29;;;;;;;2.22;1.73;;;18.60;71.60;;;;;;5112820;28;20179;-70
2023/10/07 03:08:04;;;;;;;2.17;1.90;;;18.60;71.50;;;;;;5112917;28;20169;-71
2023/10/07 03:13:15;;;;;;;2.83;2.10;;;18.60;71.50;;;;;;5080874;28;20623;-71
2023/10/07 03:15:44;;;;;;;2.58;2.38;;;18.50;71.40;;;;;;5112644;28;20186;-70
2023/10/07 03:18:23;;;;;;;2.17;1.90;;;18.60;71.50;;;;;;5112304;28;20213;-71
2023/10/07 03:21:00;;;;;;;3.85;2.42;;;18.50;71.40;;;;;;5113087;28;20184;-71
2023/10/07 03:23:26;;;;;;;2.13;1.90;;;18.60;71.50;;;;;;5111858;28;20180;-70
2023/10/07 03:28:21;;;;;;;2.38;2.00;;;18.60;71.50;;;;;;5116510;28;20169;-69
2023/10/07 03:30:51;;;;;;;2.20;2.00;;;18.50;71.50;;;;;;5116294;28;20192;-71
2023/10/07 03:38:25;;;;;;;2.42;1.83;;;18.50;71.50;;;;;;5115517;28;20201;-72
2023/10/07 03:40:55;;;;;;;2.75;2.30;;;18.50;71.40;;;;;;5116481;28;20597;-71
2023/10/07 03:43:26;;;;;;;2.50;1.90;;;18.50;71.50;;;;;;5116405;28;20177;-71
2023/10/07 03:45:53;;;;;;;1.95;1.67;;;18.50;71.50;;;;;;5115775;28;20658;-70
2023/10/07 03:48:25;;;;;;;2.33;2.13;;;18.60;71.60;;;;;;5115997;28;20237;-69
2023/10/07 03:50:59;;;;;;;2.45;2.08;;;18.50;71.50;;;;;;5116445;28;20177;-70
2023/10/07 03:53:31;;;;;;;2.78;2.15;;;18.60;71.60;;;;;;5116205;28;20256;-69
2023/10/07 03:55:58;;;;;;;2.65;2.08;;;18.60;71.60;;;;;;5116574;28;20268;-71
2023/10/07 03:58:23;;;;;;;2.22;2.03;;;18.50;71.50;;;;;;5115440;28;20248;-71
2023/10/07 04:00:49;;;;;;;2.15;1.95;;;18.50;71.60;;;;;;5116255;28;20252;-70
2023/10/07 04:03:15;;;;;;;2.22;2.03;;;18.50;71.60;;;;;;5115944;28;20216;-71
2023/10/07 04:05:45;;;;;;;2.53;2.22;;;18.50;71.60;;;;;;5115412;28;20176;-70
2023/10/07 04:08:11;;;;;;;2.40;2.20;;;18.50;71.50;;;;;;5115781;28;20181;-70
2023/10/07 04:10:37;;;;;;;2.22;2.00;;;18.50;71.50;;;;;;5116248;28;20177;-71
2023/10/07 04:13:07;;;;;;;2.83;1.95;;;18.50;71.50;;;;;;5115096;28;20173;-70
2023/10/07 04:15:41;;;;;;;2.00;1.80;;;18.50;71.50;;;;;;5115925;28;20180;-70
2023/10/07 04:18:10;;;;;;;1.95;1.85;;;18.50;71.60;;;;;;5115445;28;20217;-69
2023/10/07 04:23:24;;;;;;;2.95;1.80;;;18.50;71.60;;;;;;5115476;28;20204;-69
2023/10/07 04:26:12;;;;;;;2.15;1.80;;;18.50;71.60;;;;;;5115922;28;20177;-69
2023/10/07 04:28:40;;;;;;;2.47;1.88;;;18.50;71.60;;;;;;5115618;28;20181;-70
2023/10/07 04:31:12;;;;;;;3.13;2.28;;;18.50;71.60;;;;;;5115389;28;20205;-70
2023/10/07 04:33:40;;;;;;;2.50;2.15;;;18.50;71.60;;;;;;5114707;28;20654;-70
2023/10/07 04:36:14;;;;;;;2.10;1.90;;;18.50;71.60;;;;;;5115281;28;20181;-70
2023/10/07 04:46:43;;;;;;;2.20;2.00;;;18.50;71.60;;;;;;5115368;28;20696;-69
2023/10/07 04:49:15;;;;;;;2.70;1.80;;;18.50;71.60;;;;;;5114391;28;20238;-69
2023/10/07 04:54:10;;;;;;;2.90;2.40;;;18.50;71.60;;;;;;5115079;28;20697;-69
2023/10/07 04:56:36;;;;;;;2.22;1.80;;;18.50;71.60;;;;;;5114914;28;20180;-70
2023/10/07 04:59:10;;;;;;;2.05;1.83;;;18.50;71.60;;;;;;5115066;28;20188;-70
2023/10/07 05:01:41;;;;;;;2.60;1.88;;;18.50;71.60;;;;;;5114291;28;20169;-70
2023/10/07 05:04:11;;;;;;;2.25;2.03;;;18.50;71.70;;;;;;5114663;28;20184;-69
2023/10/07 05:06:37;;;;;;;1.63;1.52;;;18.50;71.60;;;;;;5114827;28;20178;-70
2023/10/07 05:09:09;;;;;;;2.60;2.40;;;18.50;71.70;;;;;;5113879;28;20196;-69
2023/10/07 05:11:40;;;;;;;3.42;2.30;;;18.50;71.60;;;;;;5114918;28;20180;-69
2023/10/07 05:14:10;;;;;;;4.03;2.03;;;18.50;71.60;;;;;;5114523;28;20611;-69
2023/10/07 05:16:36;;;;;;;3.45;2.10;;;18.50;71.70;;;;;;5113902;28;20185;-69
2023/10/07 05:19:03;;;;;;;2.72;2.05;;;18.50;71.70;;;;;;5114271;28;20212;-70
2023/10/07 05:21:31;;;;;;;2.22;1.90;;;18.50;71.70;;;;;;5114662;28;20170;-69
2023/10/07 05:24:01;;;;;;;2.33;1.80;;;18.50;71.70;;;;;;5113802;28;20510;-69
2023/10/07 05:26:27;;;;;;;2.15;1.92;;;18.50;71.70;;;;;;5114462;28;20494;-69
2023/10/07 05:28:53;;;;;;;2.50;1.80;;;18.50;71.70;;;;;;5114472;28;20578;-70
2023/10/07 05:31:20;;;;;;;2.03;1.83;;;18.50;71.70;;;;;;5113362;28;20706;-69
2023/10/07 05:33:47;;;;;;;1.60;1.50;;;18.50;71.70;;;;;;5114212;28;20685;-69
2023/10/07 05:36:13;;;;;;;3.72;2.30;;;18.50;71.70;;;;;;5114296;28;20177;-69
2023/10/07 05:38:40;;;;;;;2.75;2.03;;;18.50;72.50;;;;;;5113668;28;20571;-69
2023/10/07 05:41:06;;;;;;;2.72;2.00;;;18.50;71.70;;;;;;5114182;28;20181;-69
2023/10/07 05:43:32;;;;;;;3.92;2.42;;;18.50;71.80;;;;;;5113523;28;20181;-69
2023/10/07 05:45:58;;;;;;;2.92;2.17;;;18.50;71.80;;;;;;5114001;28;20580;-69
2023/10/07 05:48:25;;;;;;;2.83;1.92;;;18.50;71.70;;;;;;5113726;28;20687;-68
2023/10/07 05:50:54;;;;;;;3.10;1.98;;;18.50;71.80;;;;;;5112168;28;20181;-69
2023/10/07 05:53:20;;;;;;;2.20;2.00;;;18.50;71.80;;;;;;5113570;28;20181;-69
2023/10/07 05:55:46;;;;;;;3.10;2.05;;;18.50;71.80;;;;;;5114128;28;20169;-69
2023/10/07 05:58:12;;;;;;;2.42;1.73;;;18.50;71.80;;;;;;5112872;28;20204;-70
2023/10/07 06:00:38;;;;;;;2.83;2.20;;;18.50;71.70;;;;;;5113826;28;20208;-70
2023/10/07 06:03:08;;;;;;;2.67;2.20;;;18.50;71.80;;;;;;5113802;28;20590;-69
2023/10/07 06:05:37;;;;;;;2.30;2.10;;;18.50;71.80;;;;;;5113321;28;20170;-69
2023/10/07 06:08:04;;;;;;;2.47;2.20;;;18.40;71.70;;;;;;5113606;28;20181;-69
2023/10/07 06:10:33;;;;;;;2.78;2.00;;;18.50;71.80;;;;;;5113337;28;20173;-70
2023/10/07 06:12:59;;;;;;;2.80;1.92;;;18.50;71.80;;;;;;5112762;28;20204;-69
2023/10/07 06:15:24;;;;;;;3.03;2.17;;;18.50;71.90;;;;;;5113346;28;20583;-68
2023/10/07 06:17:50;;;;;;;2.22;1.90;;;18.50;71.80;;;;;;5113378;28;20204;-68
2023/10/07 06:20:16;;;;;;;2.88;2.10;;;18.50;71.80;;;;;;5112719;28;20225;-68
2023/10/07 06:22:48;;;;;;;4.45;2.40;;;18.40;71.80;;;;;;5113564;28;20176;-68
2023/10/07 06:25:16;;;;;;;2.40;2.20;;;18.50;71.80;;;;;;5113119;28;20177;-68
2023/10/07 06:27:43;;;;;;;4.82;2.28;;;18.50;71.80;;;;;;5112516;28;20181;-68
2023/10/07 06:30:19;;;;;;;2.50;1.83;;;18.50;71.80;;;;;;5113066;28;20751;-68
2023/10/07 06:32:45;;;;;;;2.17;1.98;;;18.50;71.80;;;;;;5112724;28;20198;-69
2023/10/07 06:35:14;;;;;;;2.40;2.08;;;18.50;71.80;;;;;;5112999;28;20699;-70
2023/10/07 06:37:41;;;;;;;2.63;1.98;;;18.50;71.80;;;;;;5113093;28;20361;-69
2023/10/07 06:40:23;;;;;;;3.65;2.15;;;18.50;71.80;;;;;;5112220;28;20192;-69
2023/10/07 06:42:48;;;;;;;3.67;2.38;;;18.50;71.80;;;;;;5113378;28;20183;-70
2023/10/07 06:45:17;;;;;;;2.83;2.15;;;18.50;71.90;;;;;;5113028;28;20247;-69
2023/10/07 06:47:46;;;;;;;3.22;2.25;;;18.50;71.90;;;;;;5112212;28;20229;-69
2023/10/07 06:50:23;;;;;;;2.70;2.45;;;18.50;71.80;;;;;;5112817;28;20173;-69
2023/10/07 06:52:55;;;;;;;4.35;2.45;;;18.50;71.90;;;;;;5113372;28;20279;-69
2023/10/07 06:55:21;;;;;;;2.78;2.40;;;18.50;71.90;;;;;;5112167;28;20193;-70
2023/10/07 06:57:47;;;;;;;2.67;2.35;;;18.50;71.90;;;;;;5112868;28;20216;-70
2023/10/07 07:00:23;;;;;;;3.65;2.03;;;18.50;71.80;;;;;;5112731;28;20212;-69
2023/10/07 07:02:57;;;;;;;2.38;2.17;;;18.50;71.80;;;;;;5118307;28;20551;-70
2023/10/07 07:05:23;;;;;;;3.30;2.45;;;18.50;71.90;;;;;;5119411;28;20213;-70
2023/10/07 07:07:52;;;;;;;3.55;2.30;;;18.50;71.80;;;;;;5119405;28;20264;-71
2023/10/07 07:10:27;;;;;;;2.75;1.98;;;18.50;71.90;;;;;;5119508;28;20173;-70
2023/10/07 07:13:02;;;;;;;2.78;2.42;;;18.50;71.90;;;;;;5119594;28;20544;-68
2023/10/07 07:15:36;;;;;;;3.55;2.30;;;18.50;71.90;;;;;;5118765;28;20275;-69
2023/10/07 07:18:08;;;;;;;2.30;2.10;;;18.60;71.90;;;;;;5119664;28;20236;-70
2023/10/07 07:20:48;;;;;;;2.65;2.20;;;18.50;71.90;;;;;;5119943;28;20225;-69
2023/10/07 07:23:17;;;;;;;2.83;2.30;;;18.60;71.90;;;;;;5118770;28;20180;-68
2023/10/07 07:25:43;;;;;;;4.20;2.60;;;18.70;72.00;;;;;;5101277;28;20169;-69
2023/10/07 07:28:14;;;;;;;2.53;2.08;;;18.50;71.90;;;;;;5119035;28;20184;-69
2023/10/07 07:30:39;;;;;;;2.78;2.30;;;18.50;71.90;;;;;;5118668;28;20180;-70
2023/10/07 07:33:08;;;;;;;2.33;2.03;;;18.50;71.90;;;;;;5119218;28;20173;-71
2023/10/07 07:35:41;;;;;;;4.47;2.78;;;18.60;72.00;;;;;;5119492;28;20202;-71
2023/10/07 07:38:32;;;;;;;2.67;2.25;;;18.60;72.00;;;;;;5118489;28;20208;-70
2023/10/07 07:41:05;;;;;;;2.40;2.10;;;18.60;72.00;;;;;;5119517;28;20260;-70
2023/10/07 07:43:38;;;;;;;2.30;2.10;;;18.50;72.00;;;;;;5118418;28;20283;-69
2023/10/07 07:46:26;;;;;;;3.05;2.03;;;18.60;72.00;;;;;;5119235;28;20636;-70
2023/10/07 07:48:52;;;;;;;2.35;2.10;;;18.50;71.90;;;;;;5119036;28;20224;-69
2023/10/07 07:51:18;;;;;;;4.50;2.38;;;18.60;72.00;;;;;;5118461;28;20177;-68
2023/10/07 07:53:44;;;;;;;2.60;2.33;;;18.60;72.00;;;;;;5119343;28;20517;-69
2023/10/07 07:56:12;;;;;;;3.00;2.38;;;18.60;72.00;;;;;;5119101;28;20178;-69
2023/10/07 07:58:39;;;;;;;2.92;2.65;;;18.60;72.10;;;;;;5118442;28;20220;-70
2023/10/07 08:01:05;;;;;;;3.17;2.42;;;18.60;72.10;;;;;;5119043;28;20593;-70
2023/10/07 08:03:38;;;;;;;2.60;2.25;;;18.60;72.10;;;;;;5118994;28;20252;-68
2023/10/07 08:06:04;;;;;;;3.97;2.65;;;18.60;72.10;;;;;;5118544;28;20180;-69
2023/10/07 08:08:30;;;;;;;3.22;2.20;;;18.50;72.00;;;;;;5119168;28;20181;-70
2023/10/07 08:10:56;;;;;;;3.30;2.33;;;18.60;72.00;;;;;;5119324;28;20226;-69
2023/10/07 08:13:23;;;;;;;2.60;2.13;;;18.60;72.10;;;;;;5115322;28;20236;-70
2023/10/07 08:15:51;;;;;;;3.78;2.63;;;18.60;72.10;;;;;;5115834;28;20223;-68
2023/10/07 08:18:22;;;;;;;3.20;2.40;;;18.60;72.00;;;;;;5114929;28;20216;-69
2023/10/07 08:20:49;;;;;;;2.83;2.50;;;18.60;72.90;;;;;;5116068;28;20173;-68
2023/10/07 08:23:28;;;;;;;3.47;2.60;;;18.60;72.10;;;;;;5115464;28;20177;-68
2023/10/07 08:26:13;;;;;;;3.00;2.30;;;18.60;72.10;;;;;;5114937;28;20635;-68
2023/10/07 08:28:43;;;;;;;2.63;2.15;;;18.60;71.90;;;;;;5115334;28;20184;-69
2023/10/07 08:31:19;;;;;;;4.07;2.55;;;18.70;71.70;;;;;;5115591;28;20184;-69
2023/10/07 08:33:52;;;;;;;3.83;2.35;;;18.70;71.60;;;;;;5114851;28;20195;-70
2023/10/07 08:36:18;;;;;;;2.28;2.00;;;18.70;71.70;;;;;;5115175;28;20173;-69
2023/10/07 08:38:45;;;;;;;2.83;2.60;;;18.70;71.70;;;;;;5115274;28;20265;-69
2023/10/07 08:41:15;;;;;;;4.28;2.10;;;18.70;71.70;;;;;;5114417;28;20173;-68
2023/10/07 08:44:00;;;;;;;3.92;2.60;;;18.70;71.60;;;;;;5115478;28;20277;-68
2023/10/07 08:46:28;;;;;;;5.22;2.63;;;18.80;71.50;;;;;;5099206;28;20628;-68
2023/10/07 08:49:05;;;;;;;3.67;2.38;;;18.80;71.60;;;;;;5115025;28;20239;-68
2023/10/07 08:51:39;;;;;;;3.15;2.45;;;18.90;71.60;;;;;;5098554;28;20208;-68
2023/10/07 08:54:11;;;;;;;3.15;2.80;;;18.90;71.40;;;;;;5114443;28;20192;-68
2023/10/07 08:56:41;;;;;;;2.63;2.42;;;18.90;71.50;;;;;;5115414;28;20240;-70
2023/10/07 08:59:07;;;;;;;3.42;2.47;;;18.90;71.60;;;;;;5114894;28;20252;-69
2023/10/07 09:01:36;;;;;;;2.60;2.40;;;19.00;71.40;;;;;;5114212;28;20200;-70
2023/10/07 09:04:06;;;;;;;3.38;2.47;;;19.00;71.30;;;;;;5114618;28;20177;-68
2023/10/07 09:06:37;;;;;;;4.60;3.10;;;18.90;71.30;;;;;;5097825;28;20178;-69
2023/10/07 09:09:08;;;;;;;4.68;3.17;;;18.90;71.40;;;;;;5113898;28;20551;-69
2023/10/07 09:11:37;;;;;;;5.05;2.95;;;19.00;71.40;;;;;;5114842;28;20180;-68
2023/10/07 09:14:11;;;;;;;3.03;2.72;;;19.00;71.40;;;;;;5096549;28;20204;-68
2023/10/07 09:16:38;;;;;;;3.75;2.78;;;19.00;71.30;;;;;;5114032;28;20169;-69
2023/10/07 09:19:10;;;;;;;4.38;3.08;;;19.00;71.30;;;;;;5114671;28;20223;-68
2023/10/07 09:21:37;;;;;;;4.00;3.08;;;19.00;71.30;;;;;;5113871;28;20621;-69
2023/10/07 09:24:04;;;;;;;4.45;3.15;;;19.00;71.30;;;;;;5114230;28;20200;-68
2023/10/07 09:26:41;;;;;;;4.40;2.70;;;19.10;71.40;;;;;;5114403;28;20234;-68
2023/10/07 09:29:21;;;;;;;3.10;2.55;;;19.20;71.30;;;;;;5113638;28;20191;-68
2023/10/07 09:31:56;;;;;;;3.80;3.05;;;19.20;71.10;;;;;;5114637;28;20169;-69
2023/10/07 09:34:41;;;;;;;4.18;2.72;;;19.20;71.00;;;;;;5114126;28;20165;-70
2023/10/07 09:37:12;;;;;;;2.53;2.22;;;19.30;71.00;;;;;;5113300;28;20177;-69
2023/10/07 09:39:53;;;;;;;3.13;2.67;;;19.30;70.90;;;;;;5096941;28;20169;-69
2023/10/07 09:42:36;;;;;;;2.90;2.28;;;19.30;70.90;;;;;;5114273;28;20181;-68
2023/10/07 09:45:16;;;;;;;2.80;2.45;;;19.30;71.00;;;;;;5098261;28;20169;-68
2023/10/07 09:47:44;;;;;;;2.78;2.53;;;19.30;71.00;;;;;;5114022;28;20256;-68
2023/10/07 09:52:42;;;;;;;3.45;2.65;;;19.30;71.10;;;;;;5114245;28;20257;-68
2023/10/07 09:55:22;;;;;;;3.83;2.60;;;19.40;71.10;;;;;;5095573;28;20218;-68
2023/10/07 09:57:59;;;;;;;3.58;2.90;;;19.40;71.00;;;;;;5094903;28;20675;-69
2023/10/07 10:00:44;;;;;;;4.03;2.30;;;19.40;70.90;;;;;;5113955;28;20219;-69
2023/10/07 10:03:28;;;;;;;4.68;2.75;;;19.40;70.90;;;;;;5095588;28;20204;-68
2023/10/07 10:06:26;;;;;;;4.10;2.65;;;19.50;70.80;;;;;;5113194;28;20359;-68
2023/10/07 10:08:58;;;;;;;3.33;2.13;;;19.50;70.70;;;;;;5095811;28;20169;-69
2023/10/07 10:16:44;;;;;;;2.97;2.67;;;19.50;70.70;;;;;;5113480;28;20241;-68
2023/10/07 10:19:21;;;;;;;3.88;2.75;;;19.50;70.60;;;;;;5112307;28;20678;-68
2023/10/07 10:21:47;;;;;;;5.13;3.30;;;19.50;70.70;;;;;;5113475;28;20180;-68
2023/10/07 10:24:18;;;;;;;2.90;2.42;;;19.60;70.70;;;;;;5113045;28;20177;-68
2023/10/07 10:26:44;;;;;;;3.10;2.80;;;19.60;70.70;;;;;;5112817;28;20202;-68
2023/10/07 10:29:16;;;;;;;3.25;2.28;;;19.60;70.60;;;;;;5113161;28;20177;-68
2023/10/07 10:31:51;;;;;;;2.92;2.40;;;19.60;70.50;;;;;;5113374;28;20185;-69
2023/10/07 10:34:21;;;;;;;3.33;2.47;;;19.60;70.40;;;;;;5113290;28;20190;-68
2023/10/07 10:36:50;;;;;;;2.00;1.85;;;19.70;70.30;;;;;;5112988;28;20176;-70
2023/10/07 10:39:20;;;;;;;3.50;2.40;;;19.70;70.20;;;;;;5112255;28;20181;-68
2023/10/07 10:41:48;;;;;;;3.17;2.80;;;19.80;70.20;;;;;;5113171;28;20186;-68
2023/10/07 10:44:16;;;;;;;2.63;2.35;;;19.80;70.20;;;;;;5112862;28;20181;-68
2023/10/07 10:46:46;;;;;;;3.88;2.47;;;19.70;70.20;;;;;;5112324;28;20181;-68
2023/10/07 10:49:12;;;;;;;3.10;2.22;;;19.70;71.20;;;;;;5112881;28;20181;-68
2023/10/07 10:51:45;;;;;;;3.15;2.78;;;19.70;70.30;;;;;;5112907;28;20647;-68
2023/10/07 10:54:21;;;;;;;3.20;2.35;;;19.70;70.30;;;;;;5112150;28;20204;-68
2023/10/07 10:56:55;;;;;;;3.17;2.30;;;19.80;70.30;;;;;;5113197;28;20642;-68
2023/10/07 10:59:22;;;;;;;4.13;2.28;;;19.80;70.30;;;;;;5112903;28;20196;-68
2023/10/07 11:01:49;;;;;;;2.95;2.15;;;19.80;70.20;;;;;;5112437;28;20180;-68
2023/10/07 11:04:19;;;;;;;3.35;2.20;;;19.90;70.20;;;;;;5112706;28;20264;-68
2023/10/07 11:06:51;;;;;;;3.10;2.42;;;19.80;70.90;;;;;;5112749;28;20176;-68
2023/10/07 11:09:26;;;;;;;2.55;1.92;;;19.80;70.20;;;;;;5112138;28;20169;-69
2023/10/07 11:11:55;;;;;;;2.85;2.50;;;19.80;70.30;;;;;;5095702;28;20179;-69
2023/10/07 11:14:21;;;;;;;2.75;2.17;;;19.80;70.30;;;;;;5093850;28;20181;-68
2023/10/07 11:16:46;;;;;;;2.97;2.47;;;19.90;70.20;;;;;;5112835;28;20635;-68
2023/10/07 11:19:14;;;;;;;3.53;2.80;;;19.90;70.10;;;;;;5112405;28;20212;-69
2023/10/07 11:21:45;;;;;;;2.50;2.30;;;19.80;70.20;;;;;;5111851;28;20180;-69
2023/10/07 11:24:22;;;;;;;2.75;2.33;;;19.80;70.20;;;;;;5112584;28;20186;-69
2023/10/07 11:26:49;;;;;;;4.03;2.38;;;19.90;70.10;;;;;;5112792;28;20643;-69
2023/10/07 11:29:15;;;;;;;3.40;2.60;;;19.80;70.10;;;;;;5111828;28;20173;-69
2023/10/07 11:31:41;;;;;;;3.58;2.33;;;19.90;70.00;;;;;;5112589;28;20165;-69
2023/10/07 11:34:08;;;;;;;2.80;2.28;;;20.00;70.00;;;;;;5094592;28;20612;-70
2023/10/07 11:36:46;;;;;;;3.78;2.15;;;20.00;69.90;;;;;;5111804;28;20184;-70
2023/10/07 11:39:15;;;;;;;3.78;2.78;;;20.00;69.80;;;;;;5112407;28;20251;-68
2023/10/07 11:41:41;;;;;;;2.53;2.33;;;20.00;69.90;;;;;;5112577;28;20197;-69
2023/10/07 11:44:09;;;;;;;3.35;2.22;;;20.00;69.90;;;;;;5111704;28;20181;-69
2023/10/07 11:46:36;;;;;;;2.95;2.63;;;19.90;69.90;;;;;;5112310;28;20180;-69
2023/10/07 11:49:02;;;;;;;2.95;2.28;;;20.00;70.00;;;;;;5114289;28;20269;-68
2023/10/07 11:51:28;;;;;;;3.60;2.22;;;19.90;70.10;;;;;;5115581;28;20264;-68
2023/10/07 11:53:55;;;;;;;2.95;2.40;;;19.90;70.00;;;;;;5116487;28;20177;-69
2023/10/07 11:56:21;;;;;;;3.50;2.30;;;20.00;70.00;;;;;;5115365;28;20177;-70
2023/10/07 11:58:49;;;;;;;3.50;2.42;;;20.00;69.90;;;;;;5116165;28;20685;-69
2023/10/07 12:01:17;;;;;;;4.05;2.63;;;20.00;69.90;;;;;;5115851;28;20225;-69
2023/10/07 12:03:46;;;;;;;3.08;2.38;;;20.00;70.00;;;;;;5115586;28;20601;-68
2023/10/07 12:06:11;;;;;;;3.20;2.30;;;19.90;70.10;;;;;;5115748;28;20169;-69
2023/10/07 12:08:38;;;;;;;2.47;2.17;;;19.90;70.10;;;;;;5116010;28;20177;-68
2023/10/07 12:11:05;;;;;;;2.90;2.58;;;20.00;70.00;;;;;;5115213;28;20253;-69
2023/10/07 12:13:31;;;;;;;4.20;2.15;;;20.00;69.90;;;;;;5115720;28;20643;-68
2023/10/07 12:15:56;;;;;;;2.95;2.22;;;20.00;69.90;;;;;;5116193;28;20275;-68
2023/10/07 12:18:22;;;;;;;2.80;2.50;;;20.00;69.90;;;;;;5114289;28;20220;-68
2023/10/07 12:20:47;;;;;;;3.22;2.38;;;20.00;69.90;;;;;;5116085;28;20166;-69
2023/10/07 12:23:13;;;;;;;3.10;2.17;;;20.00;69.90;;;;;;5115587;28;20205;-68
2023/10/07 12:25:41;;;;;;;2.97;2.50;;;20.00;69.80;;;;;;5114945;28;20210;-68
2023/10/07 12:28:08;;;;;;;3.58;2.70;;;20.10;69.80;;;;;;5115498;28;20234;-68
2023/10/07 12:30:34;;;;;;;3.42;2.25;;;20.10;69.80;;;;;;5115791;28;20211;-69
2023/10/07 12:32:59;;;;;;;5.00;2.78;;;20.00;70.00;;;;;;5114892;28;20181;-69
2023/10/07 12:35:28;;;;;;;3.45;2.40;;;20.00;70.00;;;;;;5115521;28;20646;-70
2023/10/07 12:37:55;;;;;;;4.22;2.78;;;20.10;70.00;;;;;;5115493;28;20220;-68
2023/10/07 12:40:21;;;;;;;3.20;2.28;;;20.10;70.00;;;;;;5114542;28;20176;-68
2023/10/07 12:42:52;;;;;;;3.95;2.70;;;20.00;70.00;;;;;;5115504;28;20165;-69
2023/10/07 12:45:18;;;;;;;3.88;2.72;;;20.00;70.00;;;;;;5115329;28;20187;-68
2023/10/07 12:47:44;;;;;;;2.65;2.30;;;20.10;70.00;;;;;;5096093;28;20628;-69
2023/10/07 12:52:58;;;;;;;3.25;2.20;;;20.20;69.80;;;;;;5114534;28;20258;-69
2023/10/07 12:55:34;;;;;;;4.72;2.67;;;20.20;69.70;;;;;;5114939;28;20201;-69
2023/10/07 12:58:09;;;;;;;3.90;2.63;;;20.20;69.60;;;;;;5115091;28;20220;-69
2023/10/07 13:00:36;;;;;;;5.03;2.90;;;20.20;69.50;;;;;;5113899;28;20595;-68
2023/10/07 13:03:04;;;;;;;2.88;2.50;;;20.20;69.60;;;;;;5114908;28;20670;-68
2023/10/07 13:05:32;;;;;;;2.55;2.20;;;20.20;69.80;;;;;;5114656;28;20177;-69
2023/10/07 13:07:58;;;;;;;3.30;2.20;;;20.20;69.80;;;;;;5114288;28;20189;-69
2023/10/07 13:10:24;;;;;;;3.15;2.33;;;20.10;69.80;;;;;;5115016;28;20173;-69
2023/10/07 13:12:50;;;;;;;4.32;2.65;;;20.10;69.90;;;;;;5114741;28;20230;-68
2023/10/07 13:15:15;;;;;;;3.22;2.20;;;20.10;70.00;;;;;;5113842;28;20177;-68
2023/10/07 13:17:48;;;;;;;2.95;2.63;;;20.10;70.00;;;;;;5114685;28;20216;-68
2023/10/07 13:20:17;;;;;;;3.00;2.28;;;20.10;69.90;;;;;;5114465;28;20229;-68
2023/10/07 13:22:43;;;;;;;4.35;2.67;;;20.20;69.90;;;;;;5113976;28;20181;-69
2023/10/07 13:25:09;;;;;;;3.00;2.40;;;20.10;69.80;;;;;;5114558;28;20180;-68
2023/10/07 13:27:39;;;;;;;4.30;2.53;;;20.10;69.90;;;;;;5114435;28;20651;-68
2023/10/07 13:30:12;;;;;;;3.90;2.97;;;20.00;70.00;;;;;;5114132;28;20539;-68
2023/10/07 13:32:41;;;;;;;2.92;2.47;;;20.00;70.10;;;;;;5097194;28;20184;-69
2023/10/07 13:35:15;;;;;;;2.50;2.30;;;20.00;70.20;;;;;;5113601;28;20177;-68
2023/10/07 13:37:43;;;;;;;4.00;2.40;;;19.90;70.30;;;;;;5114485;28;20299;-69
2023/10/07 13:40:15;;;;;;;3.05;2.67;;;19.90;70.30;;;;;;5114103;28;20192;-69
2023/10/07 13:42:47;;;;;;;3.28;2.42;;;19.90;70.30;;;;;;5113480;28;20623;-69
2023/10/07 13:45:14;;;;;;;2.78;2.45;;;19.90;70.40;;;;;;5113812;28;20178;-69